Time;durP1;ratioP1;P1;durP2;ratioP2;P2;SDS_P1;SDS_P2;PMS_P1;PMS_P2;Temp;Humidity;BMP_temperature;BMP_pressure;BME280_temperature;BME280_humidity;BME280_pressure;Samples;Min_cycle;Max_cycle;Signal;HPM_P1;HPM_P2
2023/11/10 00:00:44;;;;;;;58.37;54.30;;;8.00;93.00;;;;;;5038040;28;20692;-88
2023/11/10 00:03:12;;;;;;;61.37;56.77;;;8.00;93.00;;;;;;5038272;28;20184;-89
2023/11/10 00:05:37;;;;;;;66.87;61.93;;;8.00;93.10;;;;;;5037981;28;20251;-90
2023/11/10 00:08:03;;;;;;;36.90;34.07;;;7.90;93.10;;;;;;5037344;28;20176;-91
2023/11/10 00:10:29;;;;;;;36.23;33.20;;;7.90;93.20;;;;;;5037921;28;20717;-90
2023/11/10 00:12:55;;;;;;;36.20;33.00;;;7.90;93.20;;;;;;5037035;28;20198;-90
2023/11/10 00:15:24;;;;;;;37.83;34.97;;;7.90;93.30;;;;;;5036396;28;20199;-90
2023/11/10 00:17:50;;;;;;;37.83;35.27;;;7.80;93.50;;;;;;5036238;28;20186;-90
2023/11/10 00:20:16;;;;;;;39.40;35.90;;;7.80;93.60;;;;;;5036501;28;20203;-90
2023/11/10 00:22:41;;;;;;;37.70;35.13;;;7.80;93.60;;;;;;5036619;28;20175;-90
2023/11/10 00:25:08;;;;;;;39.57;36.40;;;7.80;93.60;;;;;;5036995;28;20200;-90
2023/11/10 00:27:34;;;;;;;39.43;36.13;;;7.80;93.70;;;;;;5040591;28;20176;-91
2023/11/10 00:30:01;;;;;;;38.80;36.03;;;7.80;93.80;;;;;;5041028;28;20275;-89
2023/11/10 00:32:26;;;;;;;38.23;35.40;;;7.80;93.90;;;;;;5040834;28;20176;-89
2023/11/10 00:34:52;;;;;;;36.77;34.13;;;7.80;94.10;;;;;;5040330;28;20179;-89
2023/11/10 00:37:17;;;;;;;37.17;34.20;;;7.80;94.20;;;;;;5040175;28;20644;-90
2023/11/10 00:39:43;;;;;;;36.80;34.33;;;7.80;94.20;;;;;;5058252;28;20172;-90
2023/11/10 00:42:09;;;;;;;32.17;29.97;;;7.60;94.00;;;;;;5040246;28;20298;-90
2023/11/10 00:44:34;;;;;;;32.03;30.10;;;7.40;93.20;;;;;;5040171;28;20644;-89
2023/11/10 00:47:00;;;;;;;29.50;27.43;;;7.40;92.80;;;;;;5040397;28;20207;-89
2023/11/10 00:49:26;;;;;;;31.70;29.70;;;7.20;92.10;;;;;;5041389;28;20270;-92
2023/11/10 00:51:51;;;;;;;30.30;28.13;;;7.20;91.80;;;;;;5060078;28;20184;-91
2023/11/10 00:54:17;;;;;;;29.20;27.53;;;7.20;91.80;;;;;;5041918;28;20176;-91
2023/11/10 00:56:44;;;;;;;28.97;27.00;;;7.20;92.00;;;;;;5041462;28;20211;-91
2023/11/10 00:59:10;;;;;;;30.77;28.87;;;7.20;92.10;;;;;;5042112;28;20176;-91
2023/11/10 01:01:36;;;;;;;31.13;29.33;;;7.20;92.20;;;;;;5042076;28;20200;-91
2023/11/10 01:04:03;;;;;;;33.27;31.33;;;7.10;92.30;;;;;;5041895;28;20172;-90
2023/11/10 01:06:28;;;;;;;49.70;46.80;;;7.10;92.30;;;;;;5041760;28;20202;-91
2023/11/10 01:08:54;;;;;;;51.93;48.83;;;7.10;92.40;;;;;;5041207;28;20271;-92
2023/11/10 01:11:20;;;;;;;52.17;49.13;;;7.10;92.50;;;;;;5040995;28;20176;-91
2023/11/10 01:13:45;;;;;;;53.43;50.23;;;7.10;92.60;;;;;;5040943;28;20180;-91
2023/11/10 01:16:12;;;;;;;50.80;47.70;;;7.10;92.70;;;;;;5042893;28;20204;-90
2023/11/10 01:18:38;;;;;;;55.00;51.63;;;7.10;92.90;;;;;;5040892;28;20723;-90
2023/11/10 01:21:03;;;;;;;53.13;50.10;;;7.20;93.10;;;;;;5041976;28;20204;-91
2023/11/10 01:23:29;;;;;;;55.87;52.53;;;7.20;93.20;;;;;;5040189;28;20347;-90
2023/11/10 01:25:55;;;;;;;52.67;49.57;;;7.10;93.20;;;;;;5040562;28;20199;-89
2023/11/10 01:28:20;;;;;;;53.63;50.53;;;7.10;93.40;;;;;;5040404;28;20199;-91
2023/11/10 01:30:46;;;;;;;54.13;50.83;;;7.00;93.40;;;;;;5039879;28;20184;-89
2023/11/10 01:33:12;;;;;;;56.63;53.03;;;7.00;93.50;;;;;;5039506;28;20183;-91
2023/11/10 01:35:37;;;;;;;53.40;50.10;;;7.00;93.60;;;;;;5039128;28;20204;-92
2023/11/10 01:38:03;;;;;;;54.17;51.07;;;7.00;93.70;;;;;;5039179;28;20616;-89
2023/11/10 01:40:36;;;;;;;61.67;58.17;;;7.00;93.80;;;;;;5039112;28;20210;-90
2023/11/10 01:43:09;;;;;;;33.53;31.63;;;7.00;93.90;;;;;;5039322;28;20617;-90
2023/11/10 01:45:35;;;;;;;33.40;31.50;;;7.00;94.00;;;;;;5038455;28;20196;-90
2023/11/10 01:48:02;;;;;;;56.07;52.37;;;6.90;94.10;;;;;;5039610;28;20234;-91
2023/11/10 01:50:28;;;;;;;53.93;50.80;;;7.00;94.10;;;;;;5039926;28;20215;-91
2023/11/10 01:52:54;;;;;;;56.27;52.87;;;7.00;94.20;;;;;;5038894;28;20203;-91
2023/11/10 01:55:19;;;;;;;33.23;30.97;;;7.00;94.20;;;;;;5039862;28;20250;-92
2023/11/10 01:57:48;;;;;;;34.83;32.63;;;7.00;94.20;;;;;;5039830;28;20234;-91
2023/11/10 02:00:17;;;;;;;52.67;49.60;;;7.10;94.20;;;;;;5039007;28;20186;-91
2023/11/10 02:02:44;;;;;;;54.60;51.30;;;7.00;94.30;;;;;;5039191;28;20183;-89
2023/11/10 02:05:10;;;;;;;62.53;58.77;;;7.10;94.30;;;;;;5039401;28;20200;-91
2023/11/10 02:07:36;;;;;;;32.60;30.70;;;7.10;94.30;;;;;;5039885;28;20230;-89
2023/11/10 02:10:02;;;;;;;34.63;32.50;;;7.00;94.30;;;;;;5039487;28;20176;-90
2023/11/10 02:12:27;;;;;;;34.07;31.83;;;7.10;94.20;;;;;;5039336;28;20176;-91
2023/11/10 02:14:53;;;;;;;35.67;33.30;;;7.10;94.30;;;;;;5059879;28;20211;-90
2023/11/10 02:17:18;;;;;;;34.37;32.30;;;7.10;94.20;;;;;;5057228;28;20229;-91
2023/11/10 02:19:44;;;;;;;34.93;32.83;;;7.20;94.30;;;;;;5039038;28;20628;-90
2023/11/10 02:22:09;;;;;;;35.93;33.63;;;7.20;94.30;;;;;;5038873;28;20207;-90
2023/11/10 02:24:38;;;;;;;36.80;34.50;;;7.20;94.30;;;;;;5056742;28;20171;-90
2023/11/10 02:27:03;;;;;;;34.97;32.70;;;7.20;94.30;;;;;;5038800;28;20188;-89
2023/11/10 02:29:29;;;;;;;34.43;32.33;;;7.20;94.20;;;;;;5038934;28;20168;-90
2023/11/10 02:31:55;;;;;;;37.03;34.67;;;7.20;94.20;;;;;;5038793;28;20172;-90
2023/11/10 02:34:21;;;;;;;37.43;35.13;;;7.20;94.10;;;;;;5038985;28;20178;-91
2023/11/10 02:36:46;;;;;;;36.37;33.93;;;7.30;94.10;;;;;;5038714;28;20565;-91
2023/11/10 02:39:12;;;;;;;38.43;35.67;;;7.30;94.10;;;;;;5043364;28;20184;-90
2023/11/10 02:41:37;;;;;;;40.73;38.00;;;7.30;94.10;;;;;;5038447;28;20203;-90
2023/11/10 02:44:03;;;;;;;40.00;36.87;;;7.30;94.20;;;;;;5039912;28;20172;-91
2023/11/10 02:46:29;;;;;;;41.83;38.67;;;7.30;94.20;;;;;;5056518;28;20184;-90
2023/11/10 02:48:54;;;;;;;39.33;36.80;;;7.30;94.10;;;;;;5037663;28;20179;-90
2023/11/10 02:58:04;;;;;;;37.57;34.90;;;7.30;94.00;;;;;;5056277;28;20721;-90
2023/11/10 03:00:30;;;;;;;38.03;35.50;;;7.30;94.00;;;;;;5056005;28;20204;-91
2023/11/10 03:02:55;;;;;;;41.97;39.07;;;7.30;94.00;;;;;;5037926;28;20531;-89
2023/11/10 03:05:21;;;;;;;63.27;59.33;;;7.30;94.00;;;;;;5037893;28;20330;-89
2023/11/10 03:07:47;;;;;;;59.93;56.17;;;7.30;94.00;;;;;;5037812;28;20180;-89
2023/11/10 03:10:13;;;;;;;62.53;58.27;;;7.30;94.00;;;;;;5037666;28;20164;-89
2023/11/10 03:12:38;;;;;;;60.13;56.40;;;7.30;93.90;;;;;;5037328;28;20595;-88
2023/11/10 03:15:04;;;;;;;60.63;56.73;;;7.30;93.90;;;;;;5037842;28;20178;-91
2023/11/10 03:17:30;;;;;;;61.30;57.20;;;7.20;93.90;;;;;;5037725;28;20548;-89
2023/11/10 03:19:56;;;;;;;62.00;58.00;;;7.20;93.90;;;;;;5055419;28;20237;-90
2023/11/10 03:22:22;;;;;;;62.33;58.13;;;7.20;93.90;;;;;;5054931;28;20203;-91
2023/11/10 03:24:49;;;;;;;59.53;55.73;;;7.10;93.90;;;;;;5037846;28;20310;-90
2023/11/10 03:27:18;;;;;;;60.83;56.73;;;7.10;93.90;;;;;;5037393;28;20598;-90
2023/11/10 03:29:43;;;;;;;56.37;52.70;;;7.10;93.80;;;;;;5037674;28;20180;-89
2023/11/10 03:32:09;;;;;;;59.93;55.90;;;7.10;93.80;;;;;;5037597;28;20563;-90
2023/11/10 03:34:42;;;;;;;60.67;56.57;;;7.10;93.80;;;;;;5037634;28;20176;-92
2023/11/10 03:37:11;;;;;;;58.63;54.93;;;7.10;93.80;;;;;;5037319;28;20200;-90
2023/11/10 03:39:36;;;;;;;61.27;57.53;;;7.10;93.60;;;;;;5037397;28;20176;-90
2023/11/10 03:42:02;;;;;;;37.03;34.23;;;7.10;93.60;;;;;;5037671;28;20208;-89
2023/11/10 03:44:28;;;;;;;36.43;33.93;;;7.10;93.60;;;;;;5037048;28;20233;-89
2023/11/10 03:46:54;;;;;;;56.77;53.07;;;7.20;93.50;;;;;;5037216;28;20200;-89
2023/11/10 03:49:20;;;;;;;59.27;55.50;;;7.20;93.50;;;;;;5037006;28;20187;-90
2023/11/10 03:51:46;;;;;;;62.47;58.23;;;7.30;93.50;;;;;;5037148;28;20275;-90
2023/11/10 03:54:13;;;;;;;40.33;37.47;;;7.30;93.50;;;;;;5037489;28;20207;-89
2023/11/10 03:56:39;;;;;;;39.17;36.07;;;7.30;93.30;;;;;;5037049;28;20207;-90
2023/11/10 03:59:07;;;;;;;63.67;59.00;;;7.30;93.30;;;;;;5036990;28;20169;-92
2023/11/10 04:01:33;;;;;;;59.47;55.63;;;7.30;93.20;;;;;;5037321;28;20203;-90
2023/11/10 04:04:02;;;;;;;65.90;61.47;;;7.30;93.20;;;;;;5037236;28;20168;-90
2023/11/10 04:06:28;;;;;;;40.90;38.23;;;7.30;93.10;;;;;;5037008;28;20199;-89
2023/11/10 04:08:53;;;;;;;43.40;40.17;;;7.40;93.00;;;;;;5037153;28;20176;-89
2023/11/10 04:11:19;;;;;;;41.27;38.37;;;7.40;92.90;;;;;;5036541;28;20180;-89
2023/11/10 04:13:45;;;;;;;43.93;41.00;;;7.40;92.80;;;;;;5037438;28;20180;-89
2023/11/10 04:16:20;;;;;;;43.27;40.17;;;7.40;92.80;;;;;;5037463;28;20317;-90
2023/11/10 04:18:47;;;;;;;45.50;42.00;;;7.40;92.80;;;;;;5054717;28;20647;-90
2023/11/10 04:21:13;;;;;;;44.23;41.07;;;7.40;92.80;;;;;;5037072;28;20291;-90
2023/11/10 04:23:39;;;;;;;42.63;39.73;;;7.40;92.70;;;;;;5037234;28;20617;-89
2023/11/10 04:26:06;;;;;;;45.80;42.70;;;7.40;92.80;;;;;;5054703;28;20563;-90
2023/11/10 04:28:34;;;;;;;47.13;43.73;;;7.40;92.80;;;;;;5054733;28;20179;-89
2023/11/10 04:31:00;;;;;;;45.90;42.50;;;7.40;92.90;;;;;;5036183;28;20248;-91
2023/11/10 04:33:26;;;;;;;47.53;44.17;;;7.40;92.90;;;;;;5036961;28;20651;-90
2023/11/10 04:35:51;;;;;;;44.87;41.70;;;7.40;93.00;;;;;;5036427;28;20678;-90
2023/11/10 04:38:17;;;;;;;45.17;41.87;;;7.40;93.00;;;;;;5036835;28;20221;-90
2023/11/10 04:40:43;;;;;;;46.00;42.70;;;7.40;92.90;;;;;;5036787;28;20252;-90
2023/11/10 04:43:09;;;;;;;44.83;41.60;;;7.40;93.00;;;;;;5036419;28;20176;-90
2023/11/10 04:45:35;;;;;;;42.93;39.87;;;7.40;92.90;;;;;;5036965;28;20291;-90
2023/11/10 04:48:01;;;;;;;45.57;42.30;;;7.40;92.80;;;;;;5054468;28;20173;-89
2023/11/10 04:50:27;;;;;;;46.87;43.20;;;7.40;92.90;;;;;;5054364;28;20186;-91
2023/11/10 04:52:52;;;;;;;47.20;43.23;;;7.30;92.80;;;;;;5036552;28;20274;-90
2023/11/10 04:55:18;;;;;;;46.63;42.90;;;7.30;92.80;;;;;;5054450;28;20664;-90
2023/11/10 04:57:45;;;;;;;44.40;41.00;;;7.40;92.80;;;;;;5035883;28;20234;-90
2023/11/10 05:00:11;;;;;;;45.40;42.10;;;7.30;92.80;;;;;;5036220;28;20184;-89
2023/11/10 05:02:36;;;;;;;45.20;41.63;;;7.30;92.80;;;;;;5035669;28;20180;-90
2023/11/10 05:05:03;;;;;;;66.57;61.73;;;7.40;92.70;;;;;;5036006;28;20651;-91
2023/11/10 05:07:28;;;;;;;69.07;63.97;;;7.30;92.70;;;;;;5035278;28;20176;-89
2023/11/10 05:09:54;;;;;;;63.20;58.80;;;7.30;92.70;;;;;;5053456;28;20179;-90
2023/11/10 05:12:20;;;;;;;64.47;59.80;;;7.40;92.70;;;;;;5055110;28;20659;-90
2023/11/10 05:14:45;;;;;;;65.77;61.20;;;7.40;92.70;;;;;;5057059;28;20172;-89
2023/11/10 05:17:11;;;;;;;62.23;58.13;;;7.40;92.70;;;;;;5056988;28;20230;-90
2023/11/10 05:19:37;;;;;;;66.27;61.70;;;7.40;92.80;;;;;;5056981;28;20615;-90
2023/11/10 05:22:03;;;;;;;65.03;60.63;;;7.40;92.80;;;;;;5038988;28;20214;-89
2023/11/10 05:24:29;;;;;;;66.87;62.13;;;7.30;92.70;;;;;;5038962;28;20187;-90
2023/11/10 05:26:56;;;;;;;67.07;62.20;;;7.30;92.70;;;;;;5038864;28;20246;-89
2023/11/10 05:29:22;;;;;;;65.23;60.77;;;7.40;92.70;;;;;;5039289;28;20200;-89
2023/11/10 05:31:48;;;;;;;59.90;55.90;;;7.30;92.70;;;;;;5038876;28;20179;-90
2023/11/10 05:34:16;;;;;;;63.97;59.17;;;7.30;92.80;;;;;;5056807;28;20172;-89
2023/11/10 05:36:42;;;;;;;66.20;60.90;;;7.30;92.90;;;;;;5038756;28;20187;-90
2023/11/10 05:39:07;;;;;;;65.73;61.03;;;7.30;92.90;;;;;;5038967;28;20185;-91
2023/11/10 05:41:34;;;;;;;72.53;67.40;;;7.30;92.70;;;;;;5039714;28;20199;-90
2023/11/10 05:43:59;;;;;;;45.33;42.10;;;7.30;92.80;;;;;;5038710;28;20183;-89
2023/11/10 05:46:25;;;;;;;47.57;43.97;;;7.30;92.90;;;;;;5056508;28;20188;-91
2023/11/10 05:48:50;;;;;;;65.73;61.13;;;7.30;92.80;;;;;;5038512;28;20178;-90
2023/11/10 05:51:16;;;;;;;65.00;60.40;;;7.30;92.80;;;;;;5038785;28;20184;-90
2023/11/10 05:53:42;;;;;;;71.97;66.87;;;7.30;92.80;;;;;;5038330;28;20176;-90
2023/11/10 05:56:09;;;;;;;44.83;41.10;;;7.30;92.80;;;;;;5038656;28;20230;-89
2023/11/10 05:58:34;;;;;;;45.87;42.23;;;7.30;92.70;;;;;;5003271;28;1044302;-91
2023/11/10 06:01:00;;;;;;;66.23;61.53;;;7.30;92.60;;;;;;5056887;28;20200;-91
2023/11/10 06:03:27;;;;;;;62.50;57.80;;;7.30;92.60;;;;;;5039357;28;20203;-89
2023/11/10 06:05:53;;;;;;;41.03;38.13;;;7.30;92.50;;;;;;5057350;28;20253;-93
2023/11/10 06:08:20;;;;;;;40.43;37.57;;;7.30;92.40;;;;;;5039144;28;20178;-91
2023/11/10 06:10:52;;;;;;;43.40;39.80;;;7.30;92.30;;;;;;5057115;28;20194;-90
2023/11/10 06:13:24;;;;;;;44.77;41.20;;;7.30;92.30;;;;;;5057144;28;20157;-90
2023/11/10 06:15:50;;;;;;;42.30;39.10;;;7.30;92.10;;;;;;5039103;28;20192;-91
2023/11/10 06:18:15;;;;;;;42.77;39.63;;;7.30;92.20;;;;;;5039386;28;20232;-90
2023/11/10 06:20:41;;;;;;;40.40;37.67;;;7.30;92.30;;;;;;5056668;28;20196;-90
2023/11/10 06:23:06;;;;;;;43.90;40.73;;;7.30;92.40;;;;;;5037895;28;20176;-90
2023/11/10 06:25:32;;;;;;;41.33;38.13;;;7.30;92.40;;;;;;5038948;28;20604;-89
2023/11/10 06:27:57;;;;;;;43.20;39.87;;;7.30;92.40;;;;;;5039037;28;20216;-90
2023/11/10 06:30:24;;;;;;;38.80;35.93;;;7.30;92.30;;;;;;5039175;28;20214;-90
2023/11/10 06:32:49;;;;;;;40.70;37.60;;;7.30;92.20;;;;;;5038646;28;20541;-90
2023/11/10 06:35:15;;;;;;;38.60;35.77;;;7.30;92.30;;;;;;5038792;28;20202;-89
2023/11/10 06:37:40;;;;;;;40.73;37.73;;;7.30;92.30;;;;;;5039678;28;20183;-90
2023/11/10 06:40:07;;;;;;;39.20;36.10;;;7.30;92.40;;;;;;5038641;28;20299;-90
2023/11/10 06:42:35;;;;;;;37.67;34.33;;;7.30;92.20;;;;;;5038847;28;20215;-90
2023/11/10 06:45:04;;;;;;;41.30;38.07;;;7.30;92.10;;;;;;5039286;28;20390;-90
2023/11/10 06:47:30;;;;;;;43.63;40.33;;;7.30;92.20;;;;;;5038486;28;20643;-90
2023/11/10 06:49:56;;;;;;;42.83;39.43;;;7.30;92.20;;;;;;5038729;28;20183;-90
2023/11/10 06:52:22;;;;;;;44.90;41.80;;;7.30;92.20;;;;;;5038837;28;20258;-88
2023/11/10 06:54:48;;;;;;;42.10;39.07;;;7.30;92.10;;;;;;5038277;28;20190;-90
2023/11/10 06:57:15;;;;;;;44.33;40.63;;;7.30;92.10;;;;;;5038325;28;20683;-90
2023/11/10 06:59:42;;;;;;;47.37;44.07;;;7.30;92.00;;;;;;5038366;28;20203;-90
2023/11/10 07:02:09;;;;;;;45.17;41.73;;;7.30;92.10;;;;;;5037911;28;20267;-92
2023/11/10 07:04:35;;;;;;;65.37;60.73;;;7.30;92.00;;;;;;5038145;28;20172;-90
2023/11/10 07:07:01;;;;;;;57.93;53.57;;;7.30;92.10;;;;;;5038123;28;20200;-90
2023/11/10 07:09:26;;;;;;;56.07;52.07;;;7.30;91.80;;;;;;5038512;28;20230;-92
2023/11/10 07:11:52;;;;;;;55.93;51.90;;;7.30;91.70;;;;;;5038093;28;20659;-88
2023/11/10 07:14:18;;;;;;;55.97;51.87;;;7.40;91.80;;;;;;5055569;28;20199;-91
2023/11/10 07:16:44;;;;;;;55.07;51.33;;;7.40;91.90;;;;;;5038479;28;20203;-91
2023/11/10 07:19:10;;;;;;;56.83;52.40;;;7.30;91.80;;;;;;5055901;28;20603;-91
2023/11/10 07:21:35;;;;;;;55.67;51.70;;;7.30;91.80;;;;;;5038141;28;20206;-90
2023/11/10 07:24:01;;;;;;;55.67;51.83;;;7.40;91.90;;;;;;5037904;28;20183;-91
2023/11/10 07:26:27;;;;;;;55.53;51.83;;;7.40;91.90;;;;;;5038663;28;20192;-92
2023/11/10 07:28:53;;;;;;;54.97;51.30;;;7.40;91.90;;;;;;5039288;28;20176;-91
2023/11/10 07:31:19;;;;;;;55.73;51.67;;;7.50;91.90;;;;;;5039038;28;20657;-90
2023/11/10 07:33:44;;;;;;;57.30;53.37;;;7.50;91.90;;;;;;5039376;28;20202;-91
2023/11/10 07:36:10;;;;;;;56.43;52.23;;;7.40;91.60;;;;;;5038861;28;20196;-89
2023/11/10 07:38:36;;;;;;;57.33;53.13;;;7.40;91.50;;;;;;5037743;28;20180;-91
2023/11/10 07:41:03;;;;;;;60.53;56.47;;;7.40;91.50;;;;;;5037875;28;20249;-91
2023/11/10 07:43:29;;;;;;;40.50;36.80;;;7.40;91.60;;;;;;5037942;28;20195;-91
2023/11/10 07:45:55;;;;;;;39.33;35.80;;;7.50;91.60;;;;;;5037716;28;20196;-91
2023/11/10 07:48:20;;;;;;;36.83;34.33;;;7.50;91.60;;;;;;5037721;28;20607;-91
2023/11/10 07:50:46;;;;;;;40.53;37.73;;;7.40;91.50;;;;;;5038183;28;20172;-90
2023/11/10 07:53:12;;;;;;;40.60;37.87;;;7.40;91.30;;;;;;5037958;28;20620;-90
2023/11/10 07:55:38;;;;;;;33.17;30.67;;;7.40;91.30;;;;;;5037956;28;20208;-89
2023/11/10 07:58:05;;;;;;;33.17;30.87;;;7.40;91.30;;;;;;5038478;28;20203;-91
2023/11/10 08:00:30;;;;;;;32.43;30.33;;;7.40;91.40;;;;;;5038295;28;20184;-91
2023/11/10 08:02:56;;;;;;;47.17;44.00;;;7.40;91.10;;;;;;5038397;28;20245;-89
2023/11/10 08:05:22;;;;;;;52.53;48.90;;;7.40;91.20;;;;;;5037653;28;20191;-90
2023/11/10 08:07:49;;;;;;;33.13;30.80;;;7.40;91.40;;;;;;5055893;28;20226;-89
2023/11/10 08:10:16;;;;;;;32.17;29.77;;;7.40;91.20;;;;;;5037421;28;20183;-92
2023/11/10 08:12:42;;;;;;;45.03;41.43;;;7.50;91.20;;;;;;5037903;28;20583;-90
2023/11/10 08:15:09;;;;;;;45.43;42.30;;;7.50;91.00;;;;;;5037286;28;20244;-90
2023/11/10 08:17:35;;;;;;;49.87;46.07;;;7.50;91.10;;;;;;5037420;28;20179;-91
2023/11/10 08:20:01;;;;;;;29.40;27.40;;;7.50;91.00;;;;;;5038141;28;20175;-90
2023/11/10 08:22:27;;;;;;;30.83;28.87;;;7.50;91.00;;;;;;5037626;28;20204;-91
2023/11/10 08:24:54;;;;;;;39.90;37.43;;;7.50;91.00;;;;;;5037709;28;20169;-91
2023/11/10 08:27:20;;;;;;;42.57;39.77;;;7.50;91.00;;;;;;5037579;28;20254;-90
2023/11/10 08:29:46;;;;;;;49.63;45.47;;;7.50;90.90;;;;;;5037062;28;20267;-90
2023/11/10 08:32:11;;;;;;;30.10;27.73;;;7.50;91.00;;;;;;5038112;28;20207;-90
2023/11/10 08:34:37;;;;;;;28.90;26.63;;;7.50;91.10;;;;;;5037447;28;20662;-91
2023/11/10 08:37:03;;;;;;;42.80;39.97;;;7.50;91.20;;;;;;5037494;28;20196;-91
2023/11/10 08:39:28;;;;;;;45.20;42.30;;;7.50;91.20;;;;;;5038001;28;20635;-90
2023/11/10 08:41:54;;;;;;;46.70;43.90;;;7.50;91.00;;;;;;5037456;28;20630;-90
2023/11/10 08:44:21;;;;;;;29.50;27.27;;;7.60;90.90;;;;;;5037234;28;20195;-91
2023/11/10 08:46:50;;;;;;;28.53;26.43;;;7.70;90.70;;;;;;5038555;28;20694;-91
2023/11/10 08:49:17;;;;;;;29.27;27.23;;;7.70;90.50;;;;;;5041902;28;20538;-90
2023/11/10 08:51:46;;;;;;;29.37;27.07;;;7.70;90.60;;;;;;5041516;28;20176;-90
2023/11/10 08:54:11;;;;;;;28.50;26.40;;;7.70;90.70;;;;;;5041121;28;20217;-91
2023/11/10 08:56:37;;;;;;;27.90;26.07;;;7.70;90.40;;;;;;5041410;28;20208;-90
2023/11/10 08:59:06;;;;;;;27.53;25.37;;;7.70;90.00;;;;;;5059191;28;20171;-90
2023/11/10 09:01:32;;;;;;;28.57;26.10;;;7.80;90.00;;;;;;5058328;28;20286;-91
2023/11/10 09:03:58;;;;;;;28.23;25.80;;;7.80;90.00;;;;;;5040918;28;20222;-91
2023/11/10 09:06:24;;;;;;;27.37;25.57;;;7.80;90.20;;;;;;5040725;28;20192;-91
2023/11/10 09:08:50;;;;;;;27.03;25.27;;;7.80;90.40;;;;;;5059102;28;20200;-91
2023/11/10 09:11:15;;;;;;;28.40;26.23;;;7.80;90.40;;;;;;5040906;28;20184;-91
2023/11/10 09:13:41;;;;;;;28.47;26.30;;;7.80;90.50;;;;;;5041617;28;20647;-91
2023/11/10 09:16:07;;;;;;;28.97;26.93;;;7.80;90.80;;;;;;5041089;28;20737;-90
2023/11/10 09:18:33;;;;;;;30.77;28.47;;;7.90;91.00;;;;;;5040766;28;20172;-91
2023/11/10 09:20:59;;;;;;;29.33;27.07;;;7.90;90.90;;;;;;5041052;28;20211;-90
2023/11/10 09:23:28;;;;;;;28.27;26.27;;;7.90;90.70;;;;;;5058329;28;20207;-91
2023/11/10 09:25:56;;;;;;;27.30;25.50;;;7.90;90.80;;;;;;5041663;28;20215;-92
2023/11/10 09:28:22;;;;;;;27.93;26.13;;;7.80;90.40;;;;;;5041304;28;20225;-88
2023/11/10 09:30:47;;;;;;;45.63;42.43;;;7.90;90.20;;;;;;5041176;28;20253;-90
2023/11/10 09:33:13;;;;;;;47.07;43.90;;;7.90;90.40;;;;;;5040536;28;20192;-91
2023/11/10 09:35:39;;;;;;;49.37;46.37;;;7.90;90.40;;;;;;5040766;28;20206;-89
2023/11/10 09:38:04;;;;;;;48.03;45.03;;;7.90;90.20;;;;;;5041137;28;20176;-89
2023/11/10 09:40:30;;;;;;;43.70;40.73;;;7.90;90.50;;;;;;5046333;28;20239;-91
2023/11/10 09:42:56;;;;;;;44.77;41.67;;;7.90;90.60;;;;;;5046744;28;20172;-89
2023/11/10 09:45:22;;;;;;;42.73;39.90;;;7.90;90.50;;;;;;5040684;28;20196;-91
2023/11/10 09:47:50;;;;;;;42.90;40.17;;;7.90;90.70;;;;;;5040841;28;20176;-91
2023/11/10 09:50:18;;;;;;;30.20;28.00;;;7.90;90.70;;;;;;5040832;28;20234;-90
2023/11/10 09:52:45;;;;;;;29.43;27.23;;;7.90;90.70;;;;;;5039885;28;20172;-90
2023/11/10 09:55:11;;;;;;;42.57;39.77;;;7.90;90.60;;;;;;5039687;28;20294;-90
2023/11/10 09:57:38;;;;;;;44.00;40.87;;;8.00;90.90;;;;;;5039919;28;20192;-91
2023/11/10 10:00:05;;;;;;;45.30;42.27;;;8.00;90.90;;;;;;5058731;28;20187;-91
2023/11/10 10:02:30;;;;;;;30.67;28.50;;;8.00;90.80;;;;;;5058498;28;20281;-93
2023/11/10 10:04:56;;;;;;;28.43;26.60;;;8.00;90.70;;;;;;5039945;28;20171;-91
2023/11/10 10:07:22;;;;;;;33.73;31.43;;;8.00;90.80;;;;;;5040834;28;20180;-90
2023/11/10 10:09:48;;;;;;;32.77;29.90;;;8.10;90.70;;;;;;5041142;28;20168;-89
2023/11/10 10:12:14;;;;;;;38.20;35.70;;;8.10;90.60;;;;;;5041441;28;20211;-89
2023/11/10 10:14:39;;;;;;;28.07;26.17;;;8.20;90.90;;;;;;5042166;28;20176;-89
2023/11/10 10:17:06;;;;;;;29.17;27.23;;;8.20;90.60;;;;;;5041778;28;20192;-89
2023/11/10 10:19:32;;;;;;;45.97;42.77;;;8.20;90.50;;;;;;5041736;28;20266;-91
2023/11/10 10:22:01;;;;;;;47.17;43.53;;;8.20;90.30;;;;;;5041581;28;20712;-89
2023/11/10 10:24:27;;;;;;;40.73;38.07;;;8.30;90.20;;;;;;5041312;28;20704;-89
2023/11/10 10:26:52;;;;;;;30.07;27.63;;;8.30;90.30;;;;;;5041521;28;20285;-89
2023/11/10 10:29:18;;;;;;;26.43;24.70;;;8.30;90.50;;;;;;5042209;28;20215;-88
2023/11/10 10:31:48;;;;;;;30.13;27.93;;;8.30;90.30;;;;;;5039951;28;20230;-89
2023/11/10 10:34:18;;;;;;;29.30;27.27;;;8.30;90.00;;;;;;5039999;28;20640;-90
2023/11/10 10:36:44;;;;;;;29.57;27.53;;;8.30;89.80;;;;;;5040210;28;20200;-89
2023/11/10 10:39:15;;;;;;;29.03;26.93;;;8.30;90.00;;;;;;5038537;28;20180;-90
2023/11/10 10:41:46;;;;;;;29.57;27.30;;;8.30;90.10;;;;;;5038331;28;20227;-91
2023/11/10 10:44:13;;;;;;;29.53;27.47;;;8.30;90.30;;;;;;5041269;28;20174;-91
2023/11/10 10:46:39;;;;;;;29.97;27.80;;;8.40;90.10;;;;;;5041538;28;20211;-92
2023/11/10 10:49:06;;;;;;;30.13;27.47;;;8.40;90.10;;;;;;5040555;28;20172;-92
2023/11/10 10:51:36;;;;;;;28.60;26.40;;;8.40;89.70;;;;;;5039686;28;20180;-89
2023/11/10 10:54:05;;;;;;;28.53;26.27;;;8.40;89.80;;;;;;5039814;28;20176;-89
2023/11/10 10:56:34;;;;;;;28.60;26.57;;;8.40;89.30;;;;;;5039995;28;20777;-89
2023/11/10 10:59:00;;;;;;;27.00;25.27;;;8.40;89.10;;;;;;5040201;28;20171;-89
2023/11/10 11:01:26;;;;;;;27.67;25.50;;;8.50;89.30;;;;;;5040898;28;20200;-89
2023/11/10 11:04:01;;;;;;;28.30;26.40;;;8.50;89.10;;;;;;5040393;28;20172;-90
2023/11/10 11:07:11;;;;;;;27.87;26.07;;;8.60;89.20;;;;;;5038180;28;20191;-89
2023/11/10 11:10:37;;;;;;;27.33;25.23;;;8.60;89.40;;;;;;5037937;28;20176;-89
2023/11/10 11:13:41;;;;;;;35.87;33.43;;;8.60;89.50;;;;;;5013090;28;20180;-91
2023/11/10 11:16:28;;;;;;;40.20;37.47;;;8.60;89.20;;;;;;5038562;28;20701;-90
2023/11/10 11:19:03;;;;;;;40.93;38.07;;;8.70;88.70;;;;;;5038779;28;20659;-90
2023/11/10 11:21:30;;;;;;;41.47;38.63;;;8.70;88.10;;;;;;5039379;28;20577;-89
2023/11/10 11:23:59;;;;;;;39.47;36.53;;;8.70;88.30;;;;;;5038575;28;20557;-89
2023/11/10 11:26:24;;;;;;;40.00;37.03;;;8.70;88.20;;;;;;5038631;28;20192;-90
2023/11/10 11:29:09;;;;;;;39.87;37.00;;;8.80;88.40;;;;;;5038223;28;20172;-90
2023/11/10 11:31:46;;;;;;;37.47;34.77;;;8.80;88.20;;;;;;5040045;28;20164;-90
2023/11/10 11:34:13;;;;;;;37.43;34.40;;;8.90;88.40;;;;;;5037910;28;20270;-90
2023/11/10 11:36:42;;;;;;;39.30;36.60;;;8.90;88.00;;;;;;5036342;28;20196;-89
2023/11/10 11:39:16;;;;;;;39.40;36.77;;;8.90;87.70;;;;;;5036436;28;20172;-89
2023/11/10 11:41:53;;;;;;;39.13;36.37;;;8.90;87.60;;;;;;5038312;28;20214;-89
2023/11/10 11:44:53;;;;;;;37.57;34.60;;;8.90;87.50;;;;;;5056651;28;20178;-90
2023/11/10 11:47:19;;;;;;;37.87;35.37;;;8.90;87.80;;;;;;5055895;28;20191;-90
2023/11/10 11:49:46;;;;;;;41.83;38.97;;;8.80;87.00;;;;;;5038259;28;20169;-90
2023/11/10 11:52:12;;;;;;;44.23;41.33;;;8.80;87.50;;;;;;5038220;28;20190;-89
2023/11/10 11:54:37;;;;;;;25.73;24.03;;;8.80;87.60;;;;;;5038863;28;20180;-91
2023/11/10 11:57:03;;;;;;;25.50;23.27;;;8.90;87.60;;;;;;5038270;28;20597;-90
2023/11/10 11:59:29;;;;;;;38.83;36.13;;;8.80;87.30;;;;;;5038514;28;20171;-91
2023/11/10 12:01:55;;;;;;;39.93;37.23;;;8.90;87.50;;;;;;5038481;28;20203;-90
2023/11/10 12:04:21;;;;;;;45.30;42.40;;;8.90;87.30;;;;;;5038806;28;20176;-90
2023/11/10 12:06:47;;;;;;;24.30;22.57;;;8.90;87.30;;;;;;5057103;28;20191;-89
2023/11/10 12:09:13;;;;;;;24.33;22.50;;;8.90;87.00;;;;;;5038187;28;20179;-88
2023/11/10 12:11:39;;;;;;;39.50;36.50;;;8.80;86.70;;;;;;5038309;28;20191;-89
2023/11/10 12:14:05;;;;;;;40.53;37.93;;;8.90;87.10;;;;;;5037804;28;20187;-90
2023/11/10 12:16:37;;;;;;;25.13;23.00;;;8.90;87.00;;;;;;5056502;28;20200;-90
2023/11/10 12:19:04;;;;;;;26.30;24.50;;;8.90;87.30;;;;;;5037317;28;20183;-89
2023/11/10 12:21:33;;;;;;;25.00;23.30;;;8.90;87.70;;;;;;5037532;28;20239;-89
2023/11/10 12:24:06;;;;;;;24.60;22.30;;;8.90;87.20;;;;;;5038600;28;20180;-88
2023/11/10 12:26:36;;;;;;;23.60;21.97;;;8.90;87.20;;;;;;5037973;28;20223;-89
2023/11/10 12:29:17;;;;;;;26.40;24.50;;;8.90;87.10;;;;;;5056488;28;20203;-89
2023/11/10 12:31:43;;;;;;;26.60;24.60;;;8.90;87.40;;;;;;5039115;28;20172;-89
2023/11/10 12:34:09;;;;;;;24.70;22.63;;;8.80;87.40;;;;;;5037675;28;20187;-87
2023/11/10 12:36:36;;;;;;;25.50;23.67;;;8.80;87.60;;;;;;5036782;28;20200;-88
2023/11/10 12:39:06;;;;;;;25.57;23.50;;;8.80;87.50;;;;;;5036671;28;20184;-87
2023/11/10 12:41:32;;;;;;;26.03;23.90;;;8.80;88.00;;;;;;5038658;28;20605;-90